createdAt,value
2022-08-30T00:02:27.419Z,5.55
2022-08-30T00:04:55.354Z,4.72
2022-08-30T00:07:23.560Z,5.10
2022-08-30T00:09:51.362Z,5.47
2022-08-30T00:12:23.787Z,5.03
2022-08-30T00:14:51.589Z,6.85
2022-08-30T00:17:19.477Z,5.10
2022-08-30T00:19:47.499Z,5.72
2022-08-30T00:22:15.378Z,5.93
2022-08-30T00:24:43.421Z,6.65
2022-08-30T00:27:11.827Z,6.97
2022-08-30T00:29:41.191Z,5.22
2022-08-30T00:32:09.037Z,5.20
2022-08-30T00:34:36.856Z,7.32
2022-08-30T00:37:04.703Z,7.57
2022-08-30T00:39:32.533Z,5.20
2022-08-30T00:42:00.773Z,5.43
2022-08-30T00:44:28.692Z,6.10
2022-08-30T00:46:57.844Z,5.53
2022-08-30T00:49:26.304Z,5.60
2022-08-30T00:51:55.371Z,5.32
2022-08-30T00:54:25.443Z,5.45
2022-08-30T00:56:54.454Z,6.03
2022-08-30T00:59:24.501Z,5.95
2022-08-30T01:01:53.868Z,6.15
2022-08-30T01:04:26.309Z,7.65
2022-08-30T01:06:54.359Z,5.63
2022-08-30T01:09:23.432Z,6.75
2022-08-30T01:11:51.277Z,5.68
2022-08-30T01:14:21.984Z,6.20
2022-08-30T01:16:57.728Z,6.18
2022-08-30T01:19:38.435Z,5.78
2022-08-30T01:22:20.912Z,5.68
2022-08-30T01:24:53.482Z,6.63
2022-08-30T01:27:24.315Z,5.28
2022-08-30T01:29:53.322Z,5.65
2022-08-30T01:32:29.062Z,5.13
2022-08-30T01:34:58.360Z,7.50
2022-08-30T01:37:31.531Z,5.57
2022-08-30T01:40:01.557Z,5.28
2022-08-30T01:42:29.468Z,6.00
2022-08-30T01:44:57.322Z,5.53
2022-08-30T01:47:25.149Z,5.95
2022-08-30T01:49:53.664Z,5.97
2022-08-30T01:52:21.695Z,5.78
2022-08-30T01:54:50.170Z,6.03
2022-08-30T01:57:23.527Z,10.50
2022-08-30T01:59:51.412Z,6.45
2022-08-30T02:02:23.266Z,6.50
2022-08-30T02:04:51.799Z,6.43
2022-08-30T02:07:20.429Z,5.45
2022-08-30T02:09:48.476Z,5.97
2022-08-30T02:12:16.356Z,6.43
2022-08-30T02:14:45.573Z,5.75
2022-08-30T02:17:15.178Z,5.22
2022-08-30T02:19:43.608Z,4.75
2022-08-30T02:22:12.390Z,4.63
2022-08-30T02:24:40.527Z,6.53
2022-08-30T02:27:08.366Z,5.53
2022-08-30T02:29:36.243Z,8.15
2022-08-30T02:32:06.042Z,5.63
2022-08-30T02:34:34.110Z,4.95
2022-08-30T02:37:02.071Z,5.82
2022-08-30T02:39:29.967Z,5.38
2022-08-30T02:41:57.820Z,4.65
2022-08-30T02:44:25.600Z,4.70
2022-08-30T02:46:53.585Z,6.05
2022-08-30T02:49:33.107Z,4.53
2022-08-30T02:52:04.012Z,5.53
2022-08-30T02:54:33.355Z,6.13
2022-08-30T02:57:04.723Z,5.70
2022-08-30T02:59:33.521Z,6.80
2022-08-30T03:02:01.724Z,7.28
2022-08-30T03:04:30.948Z,6.85
2022-08-30T03:06:59.086Z,7.20
2022-08-30T03:09:26.913Z,5.63
2022-08-30T03:11:54.763Z,7.18
2022-08-30T03:14:22.851Z,6.93
2022-08-30T03:16:51.421Z,7.65
2022-08-30T03:19:19.244Z,5.63
2022-08-30T03:21:49.117Z,5.57
2022-08-30T03:24:17.264Z,5.68
2022-08-30T03:26:46.551Z,5.55
2022-08-30T03:29:14.900Z,5.88
2022-08-30T03:31:53.388Z,6.05
2022-08-30T03:34:23.791Z,6.10
2022-08-30T03:36:55.678Z,6.75
2022-08-30T03:39:24.917Z,5.30
2022-08-30T03:41:53.774Z,5.63
2022-08-30T03:44:21.781Z,5.68
2022-08-30T03:46:50.175Z,5.50
2022-08-30T03:49:19.379Z,6.13
2022-08-30T03:51:48.377Z,8.52
2022-08-30T03:54:18.339Z,5.82
2022-08-30T03:56:46.193Z,5.75
2022-08-30T03:59:14.316Z,6.03
2022-08-30T04:01:42.291Z,4.68
2022-08-30T04:04:10.141Z,6.07
2022-08-30T04:06:38.333Z,5.63
2022-08-30T04:09:06.836Z,4.90
2022-08-30T04:11:36.325Z,4.90
2022-08-30T04:14:04.288Z,5.18
2022-08-30T04:16:32.184Z,5.97
2022-08-30T04:19:00.088Z,5.07
2022-08-30T04:21:28.228Z,7.47
2022-08-30T04:23:56.149Z,5.20
2022-08-30T04:26:27.646Z,7.80
2022-08-30T04:28:59.269Z,5.05
2022-08-30T04:31:27.303Z,4.65
2022-08-30T04:33:55.290Z,4.43
2022-08-30T04:36:23.665Z,5.72
2022-08-30T04:38:51.509Z,5.97
2022-08-30T04:41:20.816Z,4.65
2022-08-30T04:43:51.933Z,6.57
2022-08-30T04:46:21.419Z,4.47
2022-08-30T04:48:49.821Z,5.18
2022-08-30T04:51:18.557Z,9.70
2022-08-30T04:53:46.921Z,5.85
2022-08-30T04:56:18.113Z,5.03
2022-08-30T04:58:47.538Z,6.10
2022-08-30T05:01:18.801Z,5.65
2022-08-30T05:03:54.956Z,4.13
2022-08-30T05:06:28.648Z,7.10
2022-08-30T05:08:59.359Z,5.35
2022-08-30T05:11:28.614Z,4.38
2022-08-30T05:13:56.595Z,6.05
2022-08-30T05:16:24.710Z,4.25
2022-08-30T05:18:54.681Z,5.82
2022-08-30T05:21:26.623Z,3.55
2022-08-30T05:23:57.402Z,4.00
2022-08-30T05:26:29.685Z,4.22
2022-08-30T05:28:58.336Z,3.75
2022-08-30T05:31:29.847Z,4.00
2022-08-30T05:33:59.971Z,5.10
2022-08-30T05:36:31.108Z,4.50
2022-08-30T05:39:00.376Z,3.85
2022-08-30T05:41:28.759Z,3.67
2022-08-30T05:43:59.523Z,6.93
2022-08-30T05:49:07.820Z,3.85
2022-08-30T05:51:43.108Z,3.60
2022-08-30T05:54:13.127Z,4.00
2022-08-30T05:56:45.170Z,4.03
2022-08-30T05:59:15.118Z,5.22
2022-08-30T06:01:46.055Z,4.85
2022-08-30T06:04:15.938Z,3.70
2022-08-30T06:06:44.596Z,3.47
2022-08-30T06:09:14.742Z,3.55
2022-08-30T06:11:43.217Z,4.93
2022-08-30T06:14:11.680Z,3.25
2022-08-30T06:16:40.864Z,3.47
2022-08-30T06:19:10.876Z,3.33
2022-08-30T06:21:41.848Z,3.13
2022-08-30T06:24:11.476Z,4.88
2022-08-30T06:26:43.031Z,5.00
2022-08-30T06:29:14.348Z,5.10
2022-08-30T06:31:42.723Z,4.50
2022-08-30T06:34:11.021Z,4.63
2022-08-30T06:36:40.985Z,3.53
2022-08-30T06:39:09.771Z,2.30
2022-08-30T06:41:40.057Z,3.35
2022-08-30T06:44:18.204Z,3.67
2022-08-30T06:46:46.653Z,4.25
2022-08-30T06:49:14.670Z,3.78
2022-08-30T06:51:44.130Z,3.40
2022-08-30T06:54:13.022Z,4.50
2022-08-30T06:56:48.709Z,2.97
2022-08-30T06:59:26.823Z,4.67
2022-08-30T07:01:55.286Z,3.30
2022-08-30T07:04:24.039Z,3.10
2022-08-30T07:06:53.292Z,4.30
2022-08-30T07:09:23.081Z,2.53
2022-08-30T07:11:53.473Z,3.30
2022-08-30T07:14:22.404Z,4.38
2022-08-30T07:16:51.274Z,4.78
2022-08-30T07:19:20.951Z,3.38
2022-08-30T07:21:50.299Z,3.92
2022-08-30T07:24:20.938Z,3.63
2022-08-30T07:26:51.767Z,5.32
2022-08-30T07:29:21.079Z,3.22
2022-08-30T07:31:49.256Z,2.80
2022-08-30T07:34:19.278Z,2.33
2022-08-30T07:36:48.419Z,3.85
2022-08-30T07:39:16.352Z,4.95
2022-08-30T07:41:45.974Z,2.70
2022-08-30T07:44:14.125Z,3.20
2022-08-30T07:46:42.871Z,3.05
2022-08-30T07:49:12.934Z,2.97
2022-08-30T07:51:41.696Z,4.13
2022-08-30T07:54:09.594Z,2.47
2022-08-30T07:56:37.611Z,3.55
2022-08-30T07:59:06.953Z,2.05
2022-08-30T08:01:34.828Z,2.72
2022-08-30T08:04:03.559Z,3.35
2022-08-30T08:06:34.888Z,2.88
2022-08-30T08:09:04.339Z,3.40
2022-08-30T08:11:34.712Z,4.10
2022-08-30T08:14:04.378Z,2.38
2022-08-30T08:16:36.375Z,2.63
2022-08-30T08:19:08.940Z,1.92
2022-08-30T08:21:37.947Z,3.70
2022-08-30T08:24:06.745Z,3.85
2022-08-30T08:26:37.011Z,2.60
2022-08-30T08:29:07.928Z,2.30
2022-08-30T08:31:38.019Z,3.20
2022-08-30T08:34:06.595Z,2.35
2022-08-30T08:36:35.781Z,2.20
2022-08-30T08:39:06.313Z,3.40
2022-08-30T08:41:53.483Z,2.15
2022-08-30T08:44:41.850Z,1.92
2022-08-30T08:47:17.892Z,2.03
2022-08-30T08:49:51.596Z,2.70
2022-08-30T08:52:47.321Z,1.33
2022-08-30T08:55:20.313Z,1.85
2022-08-30T08:57:48.424Z,2.30
2022-08-30T09:00:16.638Z,1.80
2022-08-30T09:02:55.901Z,1.73
2022-08-30T09:05:29.140Z,1.73
2022-08-30T09:08:04.569Z,1.92
2022-08-30T09:10:49.827Z,3.00
2022-08-30T09:13:19.714Z,2.42
2022-08-30T09:15:54.796Z,1.58
2022-08-30T09:18:45.414Z,3.65
2022-08-30T09:21:20.335Z,1.48
2022-08-30T09:23:55.136Z,2.63
2022-08-30T09:26:30.827Z,2.53
2022-08-30T09:29:00.826Z,2.97
2022-08-30T09:31:32.209Z,1.75
2022-08-30T09:34:06.115Z,1.63
2022-08-30T09:36:41.713Z,2.03
2022-08-30T09:39:18.774Z,2.17
2022-08-30T09:41:50.047Z,2.83
2022-08-30T09:44:22.401Z,2.80
2022-08-30T09:46:54.323Z,4.13
2022-08-30T09:49:37.826Z,2.73
2022-08-30T09:52:18.323Z,1.67
2022-08-30T09:55:08.011Z,2.90
2022-08-30T09:57:48.670Z,3.55
2022-08-30T10:00:21.656Z,3.30
2022-08-30T10:03:13.321Z,2.60
2022-08-30T10:05:57.771Z,3.45
2022-08-30T10:08:45.192Z,2.33
2022-08-30T10:11:26.566Z,2.53
2022-08-30T10:14:15.237Z,1.92
2022-08-30T10:16:56.303Z,2.63
2022-08-30T10:19:40.383Z,1.73
2022-08-30T10:22:19.059Z,1.45
2022-08-30T10:24:51.844Z,2.88
2022-08-30T10:27:26.883Z,3.00
2022-08-30T10:30:02.544Z,4.00
2022-08-30T10:32:41.668Z,4.07
2022-08-30T10:35:19.618Z,1.90
2022-08-30T10:37:58.452Z,6.03
2022-08-30T10:40:51.686Z,3.15
2022-08-30T10:43:31.346Z,4.38
2022-08-30T10:46:05.641Z,1.60
2022-08-30T10:48:41.099Z,2.10
2022-08-30T10:51:24.364Z,2.70
2022-08-30T10:54:02.039Z,2.85
2022-08-30T10:56:31.520Z,2.95
2022-08-30T10:59:00.524Z,1.73
2022-08-30T11:02:03.068Z,3.78
2022-08-30T11:05:07.112Z,3.90
2022-08-30T11:07:47.101Z,1.98
2022-08-30T11:10:49.462Z,4.70
2022-08-30T11:13:25.330Z,3.75
2022-08-30T11:16:01.524Z,3.13
2022-08-30T11:18:40.479Z,2.70
2022-08-30T11:21:25.858Z,3.25
2022-08-30T11:24:11.098Z,2.95
2022-08-30T11:27:02.172Z,4.10
2022-08-30T11:29:41.513Z,2.83
2022-08-30T11:32:57.229Z,3.97
2022-08-30T11:35:49.866Z,2.45
2022-08-30T11:39:01.813Z,2.65
2022-08-30T11:41:43.127Z,5.78
2022-08-30T11:44:31.227Z,2.47
2022-08-30T11:47:01.029Z,3.05
2022-08-30T11:50:02.717Z,2.17
2022-08-30T11:52:59.686Z,2.53
2022-08-30T11:55:53.995Z,4.18
2022-08-30T11:58:44.100Z,2.00
2022-08-30T12:01:49.732Z,2.45
2022-08-30T12:04:37.355Z,1.88
2022-08-30T12:07:08.746Z,2.88
2022-08-30T12:10:06.608Z,1.95
2022-08-30T12:12:51.011Z,3.83
2022-08-30T12:15:56.906Z,3.00
2022-08-30T12:18:32.860Z,3.80
2022-08-30T12:21:12.251Z,3.72
2022-08-30T12:23:51.142Z,2.55
2022-08-30T12:26:31.513Z,3.03
2022-08-30T12:29:16.153Z,3.67
2022-08-30T12:31:48.556Z,2.45
2022-08-30T12:34:23.694Z,4.50
2022-08-30T12:36:59.225Z,2.47
2022-08-30T12:39:31.511Z,3.10
2022-08-30T12:42:17.761Z,5.10
2022-08-30T12:44:50.456Z,2.95
2022-08-30T12:47:25.649Z,2.28
2022-08-30T12:49:55.842Z,2.30
2022-08-30T12:52:34.758Z,3.25
2022-08-30T12:55:17.671Z,3.22
2022-08-30T13:00:34.060Z,3.47
2022-08-30T13:03:16.367Z,2.50
2022-08-30T13:05:54.773Z,2.95
2022-08-30T13:08:29.286Z,3.53
2022-08-30T13:11:07.443Z,2.13
2022-08-30T13:13:44.392Z,2.35
2022-08-30T13:16:29.616Z,3.92
2022-08-30T13:19:31.402Z,2.95
2022-08-30T13:22:00.714Z,2.38
2022-08-30T13:24:30.383Z,3.45
2022-08-30T13:27:06.564Z,3.42
2022-08-30T13:29:36.386Z,2.03
2022-08-30T13:32:06.353Z,3.72
2022-08-30T13:34:35.797Z,2.10
2022-08-30T13:37:06.034Z,4.60
2022-08-30T13:39:34.300Z,4.32
2022-08-30T13:44:53.903Z,1.83
2022-08-30T13:47:32.559Z,2.60
2022-08-30T13:50:00.738Z,3.35
2022-08-30T13:52:29.002Z,3.78
2022-08-30T13:54:58.645Z,2.80
2022-08-30T14:00:21.753Z,2.50
2022-08-30T14:02:55.662Z,2.03
2022-08-30T14:11:05.850Z,2.60
2022-08-30T14:13:34.028Z,1.77
2022-08-30T14:18:56.432Z,3.42
2022-08-30T14:21:25.190Z,4.13
2022-08-30T14:23:53.401Z,3.63
2022-08-30T14:26:24.845Z,3.42
2022-08-30T14:28:54.488Z,3.28
2022-08-30T14:31:25.742Z,4.38
2022-08-30T14:33:53.788Z,2.08
2022-08-30T14:36:22.960Z,2.83
2022-08-30T14:38:52.439Z,3.30
2022-08-30T14:41:20.405Z,2.65
2022-08-30T14:43:49.968Z,2.30
2022-08-30T14:46:18.104Z,2.85
2022-08-30T14:48:46.835Z,1.98
2022-08-30T14:51:18.018Z,2.85
2022-08-30T14:53:51.257Z,4.18
2022-08-30T14:56:21.157Z,2.60
2022-08-30T14:58:50.756Z,3.35
2022-08-30T15:01:20.389Z,1.98
2022-08-30T15:03:48.433Z,2.70
2022-08-30T15:06:16.440Z,3.75
2022-08-30T15:08:47.906Z,1.45
2022-08-30T15:11:21.026Z,2.53
2022-08-30T15:13:49.182Z,1.27
2022-08-30T15:16:25.044Z,1.73
2022-08-30T15:18:54.688Z,2.50
2022-08-30T15:21:24.845Z,1.67
2022-08-30T15:23:54.621Z,3.22
2022-08-30T15:26:24.826Z,3.45
2022-08-30T15:28:53.771Z,4.25
2022-08-30T15:31:25.032Z,2.63
2022-08-30T15:33:52.874Z,1.80
2022-08-30T15:36:20.931Z,2.10
2022-08-30T15:38:48.779Z,2.33
2022-08-30T15:41:16.577Z,1.48
2022-08-30T15:43:45.795Z,1.88
2022-08-30T15:46:22.320Z,2.03
2022-08-30T15:48:55.150Z,1.45
2022-08-30T15:51:25.049Z,2.70
2022-08-30T15:53:53.244Z,2.70
2022-08-30T15:56:21.672Z,2.03
2022-08-30T15:58:53.084Z,1.52
2022-08-30T16:01:30.374Z,2.55
2022-08-30T16:03:59.280Z,1.52
2022-08-30T16:06:32.304Z,2.22
2022-08-30T16:09:01.007Z,3.05
2022-08-30T16:11:29.323Z,4.35
2022-08-30T16:13:59.094Z,2.13
2022-08-30T16:16:27.075Z,2.10
2022-08-30T16:18:55.330Z,1.63
2022-08-30T16:21:26.541Z,6.40
2022-08-30T16:23:56.421Z,2.50
2022-08-30T16:26:25.253Z,2.95
2022-08-30T16:28:54.431Z,3.10
2022-08-30T16:31:26.766Z,3.15
2022-08-30T16:33:55.370Z,3.28
2022-08-30T16:36:32.048Z,1.50
2022-08-30T16:39:00.304Z,2.25
2022-08-30T16:41:28.713Z,1.73
2022-08-30T16:43:56.679Z,2.33
2022-08-30T16:46:28.483Z,2.90
2022-08-30T16:48:59.302Z,2.08
2022-08-30T16:51:31.621Z,3.22
2022-08-30T16:54:04.412Z,1.92
2022-08-30T16:56:34.187Z,1.77
2022-08-30T16:59:03.359Z,2.00
2022-08-30T17:01:37.910Z,2.53
2022-08-30T17:04:08.483Z,2.45
2022-08-30T17:06:37.334Z,2.70
2022-08-30T17:09:06.913Z,1.90
2022-08-30T17:11:36.462Z,2.22
2022-08-30T17:14:05.284Z,1.98
2022-08-30T17:16:37.095Z,3.28
2022-08-30T17:19:07.452Z,2.30
2022-08-30T17:21:36.620Z,3.80
2022-08-30T17:24:06.979Z,3.10
2022-08-30T17:26:37.731Z,3.08
2022-08-30T17:29:07.747Z,3.13
2022-08-30T17:31:37.795Z,3.60
2022-08-30T17:34:05.839Z,2.75
2022-08-30T17:36:36.917Z,3.63
2022-08-30T17:39:10.935Z,2.15
2022-08-30T17:41:45.406Z,2.05
2022-08-30T17:44:19.846Z,4.93
2022-08-30T17:46:49.406Z,3.55
2022-08-30T17:49:17.746Z,3.08
2022-08-30T17:51:47.886Z,4.00
2022-08-30T17:54:20.689Z,3.22
2022-08-30T17:56:56.614Z,3.45
2022-08-30T17:59:26.228Z,2.42
2022-08-30T18:01:55.517Z,2.20
2022-08-30T18:04:27.509Z,2.72
2022-08-30T18:06:55.939Z,2.35
2022-08-30T18:09:24.636Z,5.07
2022-08-30T18:11:56.392Z,7.85
2022-08-30T18:14:25.211Z,6.72
2022-08-30T18:19:46.380Z,4.53
2022-08-30T18:22:15.078Z,2.70
2022-08-30T18:24:43.225Z,4.20
2022-08-30T18:27:11.196Z,3.38
2022-08-30T18:29:41.814Z,2.65
2022-08-30T18:32:11.115Z,3.03
2022-08-30T18:34:40.383Z,3.08
2022-08-30T18:37:12.727Z,3.65
2022-08-30T18:39:41.263Z,4.82
2022-08-30T18:42:10.152Z,5.43
2022-08-30T18:44:39.753Z,6.25
2022-08-30T18:47:07.682Z,4.50
2022-08-30T18:49:37.417Z,4.18
2022-08-30T18:52:09.615Z,2.88
2022-08-30T18:54:42.967Z,3.28
2022-08-30T18:57:14.510Z,2.58
2022-08-30T18:59:44.228Z,2.33
2022-08-30T19:02:15.623Z,3.92
2022-08-30T19:04:47.961Z,2.20
2022-08-30T19:07:19.489Z,3.75
2022-08-30T19:09:48.853Z,3.10
2022-08-30T19:12:16.762Z,2.78
2022-08-30T19:14:45.567Z,3.03
2022-08-30T19:17:13.528Z,5.32
2022-08-30T19:19:48.572Z,2.50
2022-08-30T19:22:19.512Z,2.22
2022-08-30T19:24:50.330Z,4.03
2022-08-30T19:27:21.317Z,2.85
2022-08-30T19:29:53.192Z,4.45
2022-08-30T19:32:22.234Z,2.90
2022-08-30T19:34:50.133Z,3.50
2022-08-30T19:37:18.838Z,1.90
2022-08-30T19:39:48.465Z,2.80
2022-08-30T19:42:16.599Z,1.90
2022-08-30T19:44:44.646Z,2.47
2022-08-30T19:47:13.074Z,2.97
2022-08-30T19:49:41.031Z,2.90
2022-08-30T19:52:09.701Z,3.22
2022-08-30T19:54:37.625Z,2.25
2022-08-30T19:57:09.624Z,3.75
2022-08-30T19:59:37.782Z,2.25
2022-08-30T20:02:06.632Z,2.03
2022-08-30T20:04:34.625Z,2.65
2022-08-30T20:07:02.482Z,2.00
2022-08-30T20:09:30.332Z,2.17
2022-08-30T20:11:58.846Z,2.10
2022-08-30T20:14:28.582Z,2.95
2022-08-30T20:16:56.760Z,1.88
2022-08-30T20:22:15.221Z,4.20
2022-08-30T20:24:27.136Z,4.13
2022-08-30T20:24:43.829Z,2.60
2022-08-30T20:27:12.360Z,2.95
2022-08-30T20:29:43.041Z,3.00
2022-08-30T20:32:10.888Z,2.58
2022-08-30T20:34:39.497Z,2.92
2022-08-30T20:37:08.166Z,2.72
2022-08-30T20:39:37.616Z,3.00
2022-08-30T20:42:06.547Z,3.83
2022-08-30T20:44:34.534Z,3.03
2022-08-30T20:47:04.405Z,3.00
2022-08-30T20:49:32.829Z,2.45
2022-08-30T20:52:00.741Z,2.50
2022-08-30T20:54:33.248Z,2.78
2022-08-30T20:57:01.182Z,2.50
2022-08-30T20:59:29.523Z,3.78
2022-08-30T21:01:59.366Z,4.18
2022-08-30T21:04:33.358Z,3.25
2022-08-30T21:07:01.546Z,3.20
2022-08-30T21:09:30.088Z,4.22
2022-08-30T21:11:59.042Z,2.10
2022-08-30T21:14:27.809Z,2.22
2022-08-30T21:16:55.967Z,4.28
2022-08-30T21:19:24.932Z,3.60
2022-08-30T21:21:54.143Z,2.97
2022-08-30T21:24:22.345Z,4.03
2022-08-30T21:26:51.991Z,4.75
2022-08-30T21:29:20.235Z,2.85
2022-08-30T21:31:48.421Z,4.43
2022-08-30T21:34:17.628Z,3.38
2022-08-30T21:36:46.418Z,5.07
2022-08-30T21:39:20.870Z,3.78
2022-08-30T21:41:50.563Z,2.70
2022-08-30T21:44:21.946Z,2.63
2022-08-30T21:46:52.111Z,4.30
2022-08-30T21:49:24.287Z,3.20
2022-08-30T21:51:53.706Z,3.25
2022-08-30T21:54:24.886Z,3.00
2022-08-30T21:57:04.788Z,3.67
2022-08-30T21:59:34.506Z,2.25
2022-08-30T22:02:02.738Z,5.63
2022-08-30T22:04:30.679Z,2.50
2022-08-30T22:06:59.278Z,2.22
2022-08-30T22:09:29.289Z,3.33
2022-08-30T22:11:57.132Z,2.15
2022-08-30T22:14:27.676Z,3.13
2022-08-30T22:16:55.733Z,2.20
2022-08-30T22:19:24.118Z,2.83
2022-08-30T22:22:01.303Z,2.25
2022-08-30T22:24:31.944Z,3.15
2022-08-30T22:27:02.237Z,1.98
2022-08-30T22:29:30.530Z,2.97
2022-08-30T22:32:00.549Z,2.13
2022-08-30T22:34:28.934Z,5.38
2022-08-30T22:36:59.889Z,2.05
2022-08-30T22:39:29.199Z,1.95
2022-08-30T22:41:58.389Z,2.40
2022-08-30T22:44:27.294Z,1.95
2022-08-30T22:46:55.179Z,2.03
2022-08-30T22:49:23.019Z,1.90
2022-08-30T22:51:50.873Z,2.78
2022-08-30T22:54:18.830Z,2.08
2022-08-30T22:56:46.875Z,2.28
2022-08-30T22:59:16.223Z,2.50
2022-08-30T23:01:44.500Z,1.45
2022-08-30T23:04:13.080Z,1.65
2022-08-30T23:06:41.824Z,2.25
2022-08-30T23:09:18.527Z,3.05
2022-08-30T23:11:46.790Z,1.88
2022-08-30T23:14:16.323Z,4.45
2022-08-30T23:16:44.995Z,1.92
2022-08-30T23:19:13.177Z,2.35
2022-08-30T23:21:42.434Z,1.88
2022-08-30T23:24:28.855Z,3.88
2022-08-30T23:27:15.304Z,3.08
2022-08-30T23:30:03.259Z,2.00
2022-08-30T23:32:49.832Z,2.90
2022-08-30T23:35:37.140Z,2.80
2022-08-30T23:38:24.960Z,1.80
2022-08-30T23:41:11.422Z,1.77
2022-08-30T23:43:58.240Z,3.05
2022-08-30T23:46:46.010Z,1.85
2022-08-30T23:49:33.045Z,3.17
2022-08-30T23:52:19.615Z,2.25
2022-08-30T23:55:06.269Z,3.83
2022-08-30T23:57:52.954Z,2.38
